Time;durP1;ratioP1;P1;durP2;ratioP2;P2;SDS_P1;SDS_P2;PMS_P1;PMS_P2;Temp;Humidity;BMP_temperature;BMP_pressure;BME280_temperature;BME280_humidity;BME280_pressure;Samples;Min_cycle;Max_cycle;Signal;HPM_P1;HPM_P2
2022/11/24 00:00:20;;;;;;;63.42;23.30;;;;;;;5.24;100.00;96542.66;4913861;29;20098;-78
2022/11/24 00:02:46;;;;;;;84.32;24.83;;;;;;;5.22;100.00;96552.50;4898255;29;20028;-78
2022/11/24 00:05:11;;;;;;;117.35;26.23;;;;;;;5.06;100.00;96538.41;4927200;29;20027;-76
2022/11/24 00:07:37;;;;;;;80.18;26.83;;;;;;;5.08;100.00;96547.97;4918788;29;20035;-76
2022/11/24 00:10:03;;;;;;;69.80;25.17;;;;;;;4.98;100.00;96546.81;4903243;29;20452;-76
2022/11/24 00:12:28;;;;;;;75.93;23.38;;;;;;;4.98;100.00;96561.84;4913740;29;20032;-77
2022/11/24 00:14:54;;;;;;;67.85;22.50;;;;;;;4.91;100.00;96562.19;4919176;29;20039;-78
2022/11/24 00:17:19;;;;;;;56.65;21.17;;;;;;;4.91;100.00;96556.88;4919117;29;20488;-77
2022/11/24 00:19:45;;;;;;;52.60;21.48;;;;;;;4.81;100.00;96545.06;4914912;29;20056;-76
2022/11/24 00:22:10;;;;;;;58.65;21.23;;;;;;;4.77;100.00;96547.97;4906896;29;20036;-77
2022/11/24 00:24:36;;;;;;;101.55;23.15;;;;;;;4.71;100.00;96543.88;4918827;29;20104;-77
2022/11/24 00:27:01;;;;;;;57.05;21.45;;;;;;;4.70;100.00;96549.25;4899115;29;20028;-77
2022/11/24 00:29:27;;;;;;;74.03;21.17;;;;;;;4.74;100.00;96549.00;4914725;29;20075;-75
2022/11/24 00:31:52;;;;;;;66.45;21.00;;;;;;;4.72;100.00;96556.19;4904018;29;20070;-76
2022/11/24 00:34:18;;;;;;;59.70;22.35;;;;;;;4.66;100.00;96547.72;4895909;29;20035;-77
2022/11/24 00:36:43;;;;;;;56.42;21.60;;;;;;;4.70;100.00;96557.22;4889266;29;20385;-77
2022/11/24 00:39:14;;;;;;;71.75;18.63;;;;;;;4.67;100.00;96565.31;4910057;29;20043;-76
2022/11/24 00:41:40;;;;;;;114.10;19.92;;;;;;;4.67;100.00;96563.53;4904416;29;20066;-76
2022/11/24 00:44:05;;;;;;;52.80;19.23;;;;;;;4.63;100.00;96563.75;4890731;29;20062;-77
2022/11/24 00:46:31;;;;;;;67.65;20.67;;;;;;;4.67;100.00;96568.84;4903154;29;20476;-76
2022/11/24 00:48:59;;;;;;;58.72;20.27;;;;;;;4.61;100.00;96557.72;4894860;29;20487;-77
2022/11/24 00:51:29;;;;;;;54.08;20.90;;;;;;;4.58;100.00;96556.09;4900375;29;20046;-76
2022/11/24 00:53:55;;;;;;;50.00;19.42;;;;;;;4.57;100.00;96557.03;4914145;29;20028;-76
2022/11/24 00:56:21;;;;;;;53.00;20.38;;;;;;;4.52;100.00;96556.44;4900727;29;20035;-76
2022/11/24 00:58:47;;;;;;;56.20;20.65;;;;;;;4.52;100.00;96560.84;4887456;29;20032;-76
2022/11/24 01:01:15;;;;;;;52.83;20.25;;;;;;;4.49;100.00;96569.78;4891218;29;20051;-76
2022/11/24 01:03:41;;;;;;;83.72;26.90;;;;;;;4.27;100.00;96574.53;4883246;29;20188;-77
2022/11/24 01:06:10;;;;;;;72.20;26.67;;;;;;;4.35;100.00;96589.06;4902839;29;20440;-77
2022/11/24 01:08:37;;;;;;;70.85;23.50;;;;;;;4.31;100.00;96591.94;4887135;29;20139;-76
2022/11/24 01:11:22;;;;;;;91.75;18.23;;;;;;;4.20;100.00;96592.53;4909854;29;20024;-76
2022/11/24 01:13:51;;;;;;;64.47;16.77;;;;;;;4.13;100.00;96595.56;4917782;29;20034;-77
2022/11/24 01:16:29;;;;;;;47.00;16.63;;;;;;;4.19;100.00;96600.53;4905221;29;20114;-77
2022/11/24 01:18:55;;;;;;;65.72;16.90;;;;;;;4.22;100.00;96605.66;4908377;29;20039;-77
2022/11/24 01:21:21;;;;;;;46.88;17.25;;;;;;;4.28;100.00;96600.91;4897098;29;20036;-77
2022/11/24 01:23:47;;;;;;;67.05;15.63;;;;;;;4.29;100.00;96601.78;4914908;29;20036;-77
2022/11/24 01:26:15;;;;;;;30.88;14.10;;;;;;;4.30;100.00;96595.56;4901942;29;20036;-77
2022/11/24 01:28:41;;;;;;;79.75;16.65;;;;;;;4.35;100.00;96593.50;4901756;29;20035;-76
2022/11/24 01:31:08;;;;;;;62.47;17.98;;;;;;;4.32;100.00;96586.59;4901357;29;20027;-77
2022/11/24 01:33:34;;;;;;;51.33;17.58;;;;;;;4.20;100.00;96570.50;4917779;29;20015;-77
2022/11/24 01:36:00;;;;;;;96.63;18.42;;;;;;;4.23;100.00;96567.69;4891815;29;20063;-76
2022/11/24 01:38:26;;;;;;;82.05;21.48;;;;;;;3.87;100.00;96548.47;4898878;29;20147;-77
2022/11/24 01:41:13;;;;;;;78.18;20.42;;;;;;;3.75;100.00;96576.38;4882998;29;20420;-76
2022/11/24 01:43:40;;;;;;;57.60;18.27;;;;;;;3.77;100.00;96580.66;4898368;29;20541;-76
2022/11/24 01:46:17;;;;;;;63.33;22.20;;;;;;;3.84;100.00;96586.50;4901565;29;20495;-77
2022/11/24 01:48:47;;;;;;;71.18;18.08;;;;;;;3.84;100.00;96587.31;4879043;29;20544;-76
2022/11/24 01:51:17;;;;;;;52.90;18.42;;;;;;;3.90;100.00;96598.53;4891226;29;20054;-76
2022/11/24 01:53:47;;;;;;;68.10;18.98;;;;;;;3.90;100.00;96594.13;4901442;29;20115;-76
2022/11/24 01:56:12;;;;;;;39.03;16.67;;;;;;;4.05;100.00;96603.06;4890640;29;20043;-77
2022/11/24 01:58:39;;;;;;;49.55;17.55;;;;;;;4.02;100.00;96608.50;4891427;29;20027;-76
2022/11/24 02:01:05;;;;;;;72.07;18.80;;;;;;;3.83;100.00;96596.22;4883712;29;20110;-76
2022/11/24 02:03:34;;;;;;;52.30;17.73;;;;;;;3.89;100.00;96596.81;4898050;29;20039;-76
2022/11/24 02:06:04;;;;;;;73.43;18.48;;;;;;;3.97;100.00;96597.31;4897967;29;20036;-77
2022/11/24 02:08:51;;;;;;;48.80;18.02;;;;;;;3.93;100.00;96582.53;4897866;29;20040;-75
2022/11/24 02:11:18;;;;;;;74.10;18.10;;;;;;;3.89;100.00;96584.47;4897895;29;20047;-76
2022/11/24 02:13:44;;;;;;;66.47;19.40;;;;;;;3.96;100.00;96591.16;4882450;29;20039;-76
2022/11/24 02:16:11;;;;;;;87.75;18.65;;;;;;;3.78;100.00;96585.00;4882113;29;20047;-76
2022/11/24 02:18:38;;;;;;;83.35;19.02;;;;;;;3.84;100.00;96587.31;4882068;29;20040;-77
2022/11/24 02:21:03;;;;;;;58.40;16.90;;;;;;;3.74;100.00;96570.25;4882048;29;20028;-74
2022/11/24 02:23:36;;;;;;;77.75;17.88;;;;;;;3.84;100.00;96605.00;4881973;29;20143;-76
2022/11/24 02:26:11;;;;;;;63.25;18.48;;;;;;;3.87;100.00;96617.22;4897819;29;20034;-77
2022/11/24 02:28:37;;;;;;;48.85;17.73;;;;;;;3.86;100.00;96612.84;4897510;29;20035;-77
2022/11/24 02:31:03;;;;;;;51.92;18.33;;;;;;;3.84;100.00;96608.47;4882146;29;20345;-76
2022/11/24 02:33:29;;;;;;;40.15;16.33;;;;;;;3.91;100.00;96618.78;4879417;29;20028;-77
2022/11/24 02:35:55;;;;;;;53.58;16.40;;;;;;;3.69;100.00;96593.38;4882232;29;20564;-77
2022/11/24 02:38:31;;;;;;;59.38;15.77;;;;;;;3.48;100.00;96594.47;4882052;29;20059;-76
2022/11/24 02:40:59;;;;;;;32.78;13.77;;;;;;;3.55;100.00;96606.44;4897792;29;20050;-76
2022/11/24 02:43:27;;;;;;;35.53;14.30;;;;;;;3.43;100.00;96590.34;4881784;29;20032;-76
2022/11/24 02:45:53;;;;;;;38.10;15.07;;;;;;;3.42;100.00;96593.91;4897593;29;20032;-76
2022/11/24 02:48:19;;;;;;;51.45;17.05;;;;;;;3.49;100.00;96609.41;4882060;29;20040;-76
2022/11/24 02:50:45;;;;;;;40.05;16.92;;;;;;;3.39;100.00;96594.91;4881759;29;20059;-77
2022/11/24 02:53:10;;;;;;;44.95;17.98;;;;;;;3.53;100.00;96612.75;4897488;29;20047;-77
2022/11/24 02:55:36;;;;;;;42.63;16.92;;;;;;;3.48;100.00;96620.03;4881653;29;20088;-76
2022/11/24 02:58:01;;;;;;;45.20;17.00;;;;;;;3.44;100.00;96611.44;4881892;29;20066;-76
2022/11/24 03:00:27;;;;;;;31.58;14.90;;;;;;;3.44;100.00;96619.34;4898822;29;20135;-76
2022/11/24 03:02:52;;;;;;;46.50;15.68;;;;;;;3.44;100.00;96622.00;4881940;29;20036;-77
2022/11/24 03:05:18;;;;;;;31.67;14.52;;;;;;;3.46;100.00;96627.19;4900046;29;20028;-75
2022/11/24 03:07:44;;;;;;;39.45;16.65;;;;;;;3.49;100.00;96635.84;4894656;29;20038;-78
2022/11/24 03:10:09;;;;;;;38.90;17.20;;;;;;;3.61;100.00;96637.88;4890002;29;20029;-76
2022/11/24 03:12:35;;;;;;;49.03;18.75;;;;;;;3.63;100.00;96625.44;4900743;29;20032;-76
2022/11/24 03:15:02;;;;;;;38.05;17.20;;;;;;;3.76;100.00;96631.81;4888400;29;20028;-76
2022/11/24 03:17:27;;;;;;;48.67;22.08;;;;;;;3.79;100.00;96621.09;4886882;29;20476;-77
2022/11/24 03:19:53;;;;;;;49.53;19.70;;;;;;;3.95;100.00;96630.91;4881934;29;20024;-76
2022/11/24 03:22:18;;;;;;;49.67;20.02;;;;;;;4.12;100.00;96631.75;4880971;29;20408;-76
2022/11/24 03:24:44;;;;;;;41.85;18.33;;;;;;;4.18;100.00;96638.53;4886857;29;20024;-77
2022/11/24 03:27:09;;;;;;;48.35;20.45;;;;;;;4.17;100.00;96626.22;4881656;29;20024;-76
2022/11/24 03:29:35;;;;;;;40.00;19.30;;;;;;;4.26;100.00;96646.94;4899919;29;20060;-77
2022/11/24 03:32:01;;;;;;;36.50;17.55;;;;;;;4.24;100.00;96625.00;4881740;29;20058;-75
2022/11/24 03:34:27;;;;;;;36.20;15.80;;;;;;;4.24;100.00;96633.78;4896722;29;20440;-76
2022/11/24 03:36:52;;;;;;;37.40;15.57;;;;;;;4.31;100.00;96640.44;4913420;29;20060;-75
2022/11/24 03:39:18;;;;;;;30.75;13.27;;;;;;;4.30;100.00;96614.09;4882327;29;20035;-76
2022/11/24 03:41:43;;;;;;;30.70;12.57;;;;;;;4.33;100.00;96622.72;4927050;29;20046;-76
2022/11/24 03:44:08;;;;;;;28.58;12.70;;;;;;;4.41;100.00;96635.53;4899070;29;20092;-75
2022/11/24 03:46:34;;;;;;;30.67;12.70;;;;;;;4.46;100.00;96628.19;4900404;29;20091;-76
2022/11/24 03:49:00;;;;;;;29.23;12.93;;;;;;;4.41;100.00;96613.50;4911806;29;20427;-75
2022/11/24 03:51:25;;;;;;;46.72;19.95;;;;;;;4.45;100.00;96629.16;4919777;29;20039;-76
2022/11/24 03:53:51;;;;;;;45.30;18.35;;;;;;;4.46;100.00;96617.59;4903653;29;20040;-75
2022/11/24 03:56:16;;;;;;;54.65;21.02;;;;;;;4.52;100.00;96613.81;4903767;29;20076;-76
2022/11/24 03:58:42;;;;;;;38.85;16.15;;;;;;;4.50;100.00;96607.72;4902800;29;20436;-77
2022/11/24 04:01:07;;;;;;;36.17;16.10;;;;;;;4.59;100.00;96629.28;4889007;29;20130;-76
2022/11/24 04:03:33;;;;;;;35.35;14.65;;;;;;;4.45;100.00;96618.56;4919363;29;20028;-75
2022/11/24 04:05:59;;;;;;;28.63;13.57;;;;;;;4.48;100.00;96630.78;4916125;29;20043;-76
2022/11/24 04:08:24;;;;;;;37.88;16.50;;;;;;;4.42;100.00;96629.31;4884842;29;20027;-76
2022/11/24 04:10:51;;;;;;;42.58;18.05;;;;;;;4.43;100.00;96632.81;4909277;29;20040;-76
2022/11/24 04:13:19;;;;;;;50.00;20.95;;;;;;;4.29;100.00;96646.75;4919201;29;20027;-76
2022/11/24 04:15:45;;;;;;;39.60;17.75;;;;;;;4.25;100.00;96634.63;4894596;29;20508;-76
2022/11/24 04:18:11;;;;;;;42.53;17.17;;;;;;;4.17;100.00;96628.88;4900209;29;20033;-76
2022/11/24 04:20:37;;;;;;;36.58;15.18;;;;;;;4.20;100.00;96629.56;4915425;29;20031;-75
2022/11/24 04:23:03;;;;;;;35.03;15.52;;;;;;;4.13;100.00;96625.53;4892150;29;20039;-75
2022/11/24 04:25:29;;;;;;;33.63;14.48;;;;;;;4.19;100.00;96634.94;4907953;29;20389;-76
2022/11/24 04:27:55;;;;;;;34.78;14.57;;;;;;;4.18;100.00;96627.94;4886240;29;20112;-76
2022/11/24 04:30:22;;;;;;;30.85;14.27;;;;;;;4.17;100.00;96636.81;4892581;29;20028;-77
2022/11/24 04:32:48;;;;;;;32.95;14.35;;;;;;;3.97;100.00;96623.75;4886840;29;20056;-77
2022/11/24 04:35:13;;;;;;;30.23;13.40;;;;;;;4.07;100.00;96646.16;4883896;29;20468;-77
2022/11/24 04:37:39;;;;;;;24.05;11.93;;;;;;;4.02;100.00;96637.59;4914747;29;20063;-76
2022/11/24 04:40:06;;;;;;;24.73;12.90;;;;;;;4.06;100.00;96644.47;4889653;29;20036;-72
2022/11/24 04:42:31;;;;;;;31.05;13.70;;;;;;;3.98;100.00;96639.53;4910978;29;20028;-77
2022/11/24 04:44:57;;;;;;;26.65;12.25;;;;;;;4.02;100.00;96646.41;4901412;29;20086;-76
2022/11/24 04:47:24;;;;;;;24.73;11.73;;;;;;;4.06;100.00;96650.56;4909645;29;20031;-75
2022/11/24 04:49:50;;;;;;;21.70;11.23;;;;;;;4.07;100.00;96656.72;4915604;29;20019;-76
2022/11/24 04:52:20;;;;;;;33.53;13.88;;;;;;;4.06;100.00;96652.41;4895986;29;20036;-76
2022/11/24 04:54:46;;;;;;;31.13;13.13;;;;;;;4.02;100.00;96664.06;4907254;29;20030;-77
2022/11/24 04:57:16;;;;;;;28.77;14.35;;;;;;;4.01;100.00;96671.13;4891852;29;20461;-77
2022/11/24 04:59:41;;;;;;;32.60;14.25;;;;;;;3.86;100.00;96655.16;4890337;29;20401;-77
2022/11/24 05:02:08;;;;;;;30.05;13.85;;;;;;;3.86;100.00;96673.69;4902259;29;20082;-76
2022/11/24 05:04:33;;;;;;;36.60;15.95;;;;;;;3.77;100.00;96675.84;4902263;29;20396;-75
2022/11/24 05:06:59;;;;;;;46.25;17.83;;;;;;;3.78;100.00;96679.38;4918258;29;20039;-77
2022/11/24 05:09:24;;;;;;;44.15;17.00;;;;;;;3.74;100.00;96704.22;4902376;29;20046;-76
2022/11/24 05:11:52;;;;;;;28.55;14.07;;;;;;;3.68;100.00;96708.03;4935273;29;20492;-75
2022/11/24 05:14:17;;;;;;;37.58;14.02;;;;;;;3.71;100.00;96707.88;4889946;29;20511;-76
2022/11/24 05:16:43;;;;;;;31.50;12.77;;;;;;;3.71;100.00;96722.91;4888828;29;20032;-77
2022/11/24 05:19:08;;;;;;;29.02;13.55;;;;;;;3.77;100.00;96739.31;4899882;29;20035;-76
2022/11/24 05:21:34;;;;;;;34.22;14.15;;;;;;;3.80;100.00;96756.81;4895244;29;20035;-77
2022/11/24 05:23:59;;;;;;;26.38;13.75;;;;;;;3.79;100.00;96755.09;4906476;29;20147;-77
2022/11/24 05:26:26;;;;;;;29.17;13.95;;;;;;;3.89;100.00;96772.25;4898922;29;20491;-76
2022/11/24 05:28:51;;;;;;;33.72;15.75;;;;;;;3.92;100.00;96781.81;4899360;29;20037;-78
2022/11/24 05:31:17;;;;;;;39.60;17.13;;;;;;;4.05;100.00;96796.19;4895202;29;20043;-80
2022/11/24 05:33:42;;;;;;;35.60;18.02;;;;;;;3.97;100.00;96769.25;4903596;29;20038;-78
2022/11/24 05:36:51;;;;;;;44.78;19.63;;;;;;;4.27;100.00;96807.44;4889612;29;20082;-77
2022/11/24 05:38:54;;;;;;;31.38;15.27;;;;;;;4.47;100.00;96820.53;4899110;29;20111;-78
2022/11/24 05:41:19;;;;;;;36.88;16.77;;;;;;;4.61;100.00;96818.09;4898395;29;20043;-80
2022/11/24 05:43:45;;;;;;;40.83;17.40;;;;;;;4.81;100.00;96820.56;4895748;29;20140;-78
2022/11/24 05:46:10;;;;;;;40.22;18.63;;;;;;;4.99;100.00;96817.91;4897686;29;20099;-78
2022/11/24 05:48:36;;;;;;;54.95;24.20;;;;;;;5.17;100.00;96822.28;4895922;29;20127;-81
2022/11/24 05:51:01;;;;;;;49.60;22.40;;;;;;;5.27;100.00;96819.03;4895035;29;20519;-80
2022/11/24 05:53:27;;;;;;;51.58;20.88;;;;;;;5.41;100.00;96816.50;4896372;29;20500;-81
2022/11/24 05:55:53;;;;;;;44.50;19.63;;;;;;;5.64;100.00;96817.94;4901120;29;20031;-79
2022/11/24 05:58:18;;;;;;;45.42;17.95;;;;;;;5.81;100.00;96807.28;4892203;29;20039;-79
2022/11/24 06:00:44;;;;;;;54.33;22.25;;;;;;;5.96;100.00;96809.09;4904018;29;20088;-80
2022/11/24 06:03:11;;;;;;;49.20;20.10;;;;;;;6.11;100.00;96807.38;4889693;29;20042;-79
2022/11/24 06:05:37;;;;;;;59.00;21.63;;;;;;;6.33;100.00;96807.03;4882627;29;20036;-78
2022/11/24 06:08:02;;;;;;;55.17;20.98;;;;;;;6.57;100.00;96810.94;4912450;29;20086;-79
2022/11/24 06:10:28;;;;;;;35.10;16.48;;;;;;;6.55;100.00;96812.81;4909542;29;20110;-78
2022/11/24 06:12:54;;;;;;;38.70;15.75;;;;;;;6.51;100.00;96801.53;4903540;29;20119;-79
2022/11/24 06:15:20;;;;;;;66.05;25.75;;;;;;;6.55;100.00;96802.19;4908734;29;20031;-79
2022/11/24 06:17:54;;;;;;;48.40;19.45;;;;;;;6.64;100.00;96798.16;4882423;29;20035;-81
2022/11/24 06:20:21;;;;;;;54.55;19.90;;;;;;;6.67;100.00;96800.63;4904105;29;20035;-78
2022/11/24 06:22:47;;;;;;;45.40;19.80;;;;;;;6.84;100.00;96813.75;4903011;29;20115;-78
2022/11/24 06:25:13;;;;;;;46.75;19.63;;;;;;;7.20;100.00;96824.84;4891880;29;20099;-79
2022/11/24 06:27:38;;;;;;;52.25;18.85;;;;;;;7.23;100.00;96814.03;4922189;29;20031;-79
2022/11/24 06:30:05;;;;;;;41.47;17.30;;;;;;;6.96;100.00;96795.28;4897435;29;20039;-79
2022/11/24 06:32:30;;;;;;;45.17;19.90;;;;;;;6.77;100.00;96793.81;4883141;29;20039;-79
2022/11/24 06:34:56;;;;;;;36.13;17.27;;;;;;;6.71;100.00;96800.34;4882542;29;20032;-80
2022/11/24 06:37:22;;;;;;;35.10;16.67;;;;;;;6.76;100.00;96811.56;4882631;29;20349;-80
2022/11/24 06:39:48;;;;;;;37.97;16.27;;;;;;;6.75;100.00;96801.88;4899862;29;20058;-80
2022/11/24 06:42:17;;;;;;;42.55;16.95;;;;;;;6.89;100.00;96823.16;4901002;29;20032;-79
2022/11/24 06:44:46;;;;;;;35.65;16.05;;;;;;;6.84;100.00;96830.56;4909888;29;20027;-79
2022/11/24 06:47:12;;;;;;;42.22;17.65;;;;;;;6.90;100.00;96840.84;4928936;29;20032;-79
2022/11/24 06:49:37;;;;;;;37.33;16.52;;;;;;;6.97;100.00;96842.19;4916462;29;20051;-79
2022/11/24 06:52:03;;;;;;;48.50;20.38;;;;;;;7.03;100.00;96843.63;4914257;29;20028;-80
2022/11/24 06:54:29;;;;;;;56.20;23.60;;;;;;;7.11;100.00;96845.84;4886127;29;20043;-80
2022/11/24 06:56:56;;;;;;;50.50;22.17;;;;;;;7.19;100.00;96855.09;4892283;29;20032;-80
2022/11/24 06:59:21;;;;;;;65.43;24.95;;;;;;;7.24;100.00;96850.34;4910360;29;20052;-80
2022/11/24 07:01:47;;;;;;;48.20;22.52;;;;;;;7.13;100.00;96862.56;4878711;29;20088;-79
2022/11/24 07:04:13;;;;;;;60.92;26.80;;;;;;;7.28;100.00;96866.97;4891176;29;20036;-79
2022/11/24 07:06:40;;;;;;;69.40;28.65;;;;;;;7.40;100.00;96868.91;4897993;29;20036;-78
2022/11/24 07:09:08;;;;;;;68.65;30.00;;;;;;;7.41;100.00;96868.78;4887839;29;20372;-80
2022/11/24 07:11:34;;;;;;;63.00;27.83;;;;;;;7.51;100.00;96869.94;4884745;29;20473;-80
2022/11/24 07:13:59;;;;;;;48.33;22.17;;;;;;;7.53;100.00;96869.88;4893671;29;20032;-80
2022/11/24 07:16:25;;;;;;;57.80;27.92;;;;;;;7.59;100.00;96881.00;4896184;29;20036;-79
2022/11/24 07:18:52;;;;;;;75.75;30.73;;;;;;;7.65;100.00;96877.09;4906914;29;20117;-79
2022/11/24 07:21:19;;;;;;;68.28;32.53;;;;;;;7.69;100.00;96886.59;4909378;29;20024;-79
2022/11/24 07:23:48;;;;;;;88.32;36.72;;;;;;;7.65;100.00;96882.44;4885067;29;20032;-79
2022/11/24 07:26:14;;;;;;;88.47;39.40;;;;;;;7.72;100.00;96891.72;4889487;29;20030;-79
2022/11/24 07:28:39;;;;;;;107.32;44.33;;;;;;;7.82;100.00;96892.88;4901824;29;20036;-81
2022/11/24 07:31:06;;;;;;;125.50;46.33;;;;;;;7.92;100.00;96901.16;4918236;29;20111;-80
2022/11/24 07:33:32;;;;;;;116.18;52.92;;;;;;;8.03;100.00;96894.22;4894018;29;20027;-80
2022/11/24 07:36:01;;;;;;;114.40;51.88;;;;;;;8.07;100.00;96890.41;4919277;29;20405;-80
2022/11/24 07:38:28;;;;;;;106.68;47.38;;;;;;;8.01;100.00;96890.81;4909093;29;20110;-79
2022/11/24 07:40:53;;;;;;;132.77;56.78;;;;;;;8.10;100.00;96892.88;4911910;29;20463;-79
2022/11/24 07:43:19;;;;;;;136.88;57.72;;;;;;;8.08;100.00;96885.94;4919710;29;20031;-79
2022/11/24 07:45:50;;;;;;;135.27;60.63;;;;;;;7.96;100.00;96884.06;4929315;29;20067;-80
2022/11/24 07:48:16;;;;;;;135.00;59.50;;;;;;;7.90;100.00;96898.63;4909632;29;20027;-79
2022/11/24 07:50:41;;;;;;;125.00;55.83;;;;;;;8.03;100.00;96899.53;4903780;29;20042;-79
2022/11/24 07:53:07;;;;;;;139.10;56.95;;;;;;;8.08;100.00;96894.81;4890236;29;20028;-80
2022/11/24 07:55:33;;;;;;;115.65;54.88;;;;;;;8.07;100.00;96897.53;4925075;29;20031;-80
2022/11/24 07:57:59;;;;;;;118.13;54.05;;;;;;;8.17;100.00;96904.88;4908481;29;20032;-79
2022/11/24 08:00:26;;;;;;;111.70;54.42;;;;;;;8.21;100.00;96910.00;4899689;29;20431;-78
2022/11/24 08:02:52;;;;;;;108.78;51.83;;;;;;;8.19;100.00;96899.44;4917882;29;20050;-83
2022/11/24 08:05:17;;;;;;;96.93;45.80;;;;;;;8.16;100.00;96896.97;4910220;29;20032;-80
2022/11/24 08:07:43;;;;;;;127.05;48.35;;;;;;;8.01;100.00;96898.78;4891467;29;20129;-80
2022/11/24 08:10:08;;;;;;;145.02;53.38;;;;;;;7.95;100.00;96906.28;4918036;29;20416;-79
2022/11/24 08:12:34;;;;;;;74.63;34.95;;;;;;;7.86;100.00;96907.72;4900022;29;20067;-78
2022/11/24 08:15:00;;;;;;;78.07;33.08;;;;;;;8.02;100.00;96924.47;4908152;29;20029;-83
2022/11/24 08:17:27;;;;;;;83.88;33.25;;;;;;;8.02;100.00;96919.16;4899864;29;20548;-81
2022/11/24 08:19:53;;;;;;;73.20;32.47;;;;;;;7.98;100.00;96922.09;4884336;29;20042;-80
2022/11/24 08:22:18;;;;;;;60.85;27.27;;;;;;;7.93;100.00;96914.41;4901558;29;20480;-78
2022/11/24 08:24:47;;;;;;;57.90;26.75;;;;;;;7.80;100.00;96913.44;4894933;29;20377;-81
2022/11/24 08:27:14;;;;;;;63.85;29.10;;;;;;;7.85;100.00;96924.63;4919144;29;20031;-79
2022/11/24 08:29:40;;;;;;;54.80;26.20;;;;;;;7.99;100.00;96935.31;4915825;29;20027;-82
2022/11/24 08:32:06;;;;;;;48.00;23.45;;;;;;;7.91;100.00;96923.41;4906187;29;20031;-79
2022/11/24 08:34:32;;;;;;;46.38;22.67;;;;;;;7.90;100.00;96921.72;4894836;29;20098;-80
2022/11/24 08:36:58;;;;;;;50.80;25.63;;;;;;;7.86;100.00;96923.69;4910849;29;20118;-80
2022/11/24 08:39:23;;;;;;;51.45;26.48;;;;;;;7.92;100.00;96926.00;4894698;29;20027;-79
2022/11/24 08:41:49;;;;;;;58.47;28.70;;;;;;;7.94;100.00;96921.41;4914695;29;20030;-79
2022/11/24 08:44:17;;;;;;;69.38;27.60;;;;;;;8.04;100.00;96930.56;4883954;29;20148;-80
2022/11/24 08:46:43;;;;;;;54.47;27.70;;;;;;;8.08;100.00;96924.09;4910632;29;20032;-81
2022/11/24 08:49:09;;;;;;;54.53;26.00;;;;;;;8.07;100.00;96921.50;4912275;29;20076;-79
2022/11/24 08:51:35;;;;;;;61.75;28.23;;;;;;;8.04;100.00;96922.56;4909042;29;20055;-79
2022/11/24 08:54:01;;;;;;;56.47;25.90;;;;;;;7.92;100.00;96925.13;4918184;29;20024;-79
2022/11/24 08:56:29;;;;;;;62.45;28.63;;;;;;;8.01;100.00;96924.56;4934796;29;20028;-80
2022/11/24 08:58:55;;;;;;;73.38;32.40;;;;;;;8.02;100.00;96924.47;4897837;29;20031;-79
2022/11/24 09:01:22;;;;;;;69.13;33.45;;;;;;;8.17;100.00;96928.00;4891154;29;20031;-80
2022/11/24 09:03:49;;;;;;;66.38;28.25;;;;;;;8.33;100.00;96928.78;4902069;29;20115;-79
2022/11/24 09:06:16;;;;;;;66.18;27.25;;;;;;;8.53;100.00;96930.16;4888136;29;20559;-79
2022/11/24 09:08:43;;;;;;;62.85;30.20;;;;;;;8.51;100.00;96921.44;4878822;29;20056;-79
2022/11/24 09:11:12;;;;;;;69.47;34.42;;;;;;;8.55;100.00;96923.78;4896575;29;20412;-80
2022/11/24 09:13:38;;;;;;;61.22;31.23;;;;;;;8.54;100.00;96915.91;4900639;29;20035;-80
2022/11/24 09:16:15;;;;;;;53.65;24.52;;;;;;;8.31;100.00;96916.47;4897346;29;20024;-79
2022/11/24 09:18:41;;;;;;;52.58;26.10;;;;;;;8.33;100.00;96919.94;4899186;29;20095;-79
2022/11/24 09:21:18;;;;;;;44.92;22.20;;;;;;;8.34;100.00;96918.94;4899120;29;20076;-80
2022/11/24 09:23:47;;;;;;;49.33;23.63;;;;;;;8.40;100.00;96929.25;4900835;29;20408;-81
2022/11/24 09:26:18;;;;;;;41.70;20.42;;;;;;;8.43;100.00;96918.41;4934749;29;20035;-80
2022/11/24 09:28:44;;;;;;;41.75;21.95;;;;;;;8.49;100.00;96912.69;4884404;29;20044;-80
2022/11/24 09:31:12;;;;;;;54.35;27.50;;;;;;;8.66;100.00;96915.09;4904305;29;20034;-80
2022/11/24 09:33:38;;;;;;;98.88;45.72;;;;;;;8.71;100.00;96913.84;4934755;29;20028;-80
2022/11/24 09:36:04;;;;;;;70.90;31.52;;;;;;;8.70;100.00;96892.63;4905466;29;20104;-80
2022/11/24 09:38:30;;;;;;;69.78;36.40;;;;;;;8.92;100.00;96890.25;4890814;29;20042;-81
2022/11/24 09:41:25;;;;;;;68.75;34.63;;;;;;;9.17;100.00;96892.16;4909282;29;20480;-80
2022/11/24 09:44:15;;;;;;;52.38;28.85;;;;;;;9.32;100.00;96890.28;4933442;29;20512;-74
2022/11/24 09:46:46;;;;;;;57.08;28.60;;;;;;;9.22;100.00;96880.22;4921339;29;20035;-90
2022/11/24 09:49:21;;;;;;;55.35;26.90;;;;;;;9.23;100.00;96865.06;4870309;29;20056;-89
2022/11/24 09:51:49;;;;;;;27.17;12.30;;;;;;;9.20;100.00;96854.59;4905249;29;20158;-89
2022/11/24 09:54:18;;;;;;;38.40;15.05;;;;;;;9.25;100.00;96856.00;4907372;29;20035;-90
2022/11/24 09:56:44;;;;;;;32.85;16.02;;;;;;;9.44;100.00;96865.44;4908262;29;20031;-89
2022/11/24 09:59:10;;;;;;;38.72;17.30;;;;;;;9.50;100.00;96857.88;4906085;29;20067;-90
2022/11/24 10:01:39;;;;;;;41.05;18.42;;;;;;;9.70;100.00;96857.31;4932359;29;20471;-70
2022/11/24 10:04:14;;;;;;;41.65;19.85;;;;;;;9.75;100.00;96857.84;4927565;29;20050;-71
2022/11/24 10:06:45;;;;;;;41.22;19.88;;;;;;;9.73;100.00;96842.91;4895495;29;20032;-71
2022/11/24 10:09:43;;;;;;;50.97;20.20;;;;;;;9.68;100.00;96845.91;4919026;29;20028;-70
2022/11/24 10:12:42;;;;;;;41.63;18.10;;;;;;;9.52;100.00;96839.91;4859858;29;20050;-72
2022/11/24 10:15:30;;;;;;;41.42;18.77;;;;;;;9.59;100.00;96838.53;4911120;29;20473;-71
2022/11/24 10:18:26;;;;;;;36.38;18.38;;;;;;;9.65;100.00;96840.78;4895274;29;20408;-71
2022/11/24 10:21:06;;;;;;;37.70;17.48;;;;;;;9.57;100.00;96839.56;4912160;29;20405;-71
2022/11/24 10:23:50;;;;;;;40.10;17.60;;;;;;;9.71;100.00;96844.84;4894870;29;20461;-71
2022/11/24 10:26:30;;;;;;;43.35;15.68;;;;;;;9.86;100.00;96849.09;4894868;29;20159;-71
2022/11/24 10:28:55;;;;;;;46.33;15.57;;;;;;;9.86;100.00;96851.78;4894666;29;20091;-71
2022/11/24 10:31:22;;;;;;;28.92;14.82;;;;;;;9.88;100.00;96849.84;4895100;29;20040;-72
2022/11/24 10:33:49;;;;;;;26.67;13.43;;;;;;;10.01;100.00;96850.69;4897768;29;20019;-72
2022/11/24 10:36:35;;;;;;;27.90;12.75;;;;;;;9.95;100.00;96845.78;4930976;29;20035;-72
2022/11/24 10:39:15;;;;;;;26.20;13.52;;;;;;;10.06;100.00;96837.84;4914313;29;20040;-71
2022/11/24 10:41:57;;;;;;;28.55;13.50;;;;;;;10.03;100.00;96847.94;4898089;29;20024;-71
2022/11/24 10:44:23;;;;;;;31.30;14.52;;;;;;;9.82;100.00;96834.25;4913521;29;20031;-71
2022/11/24 10:46:48;;;;;;;32.45;14.40;;;;;;;9.69;100.00;96838.75;4930643;29;20051;-72
2022/11/24 10:49:18;;;;;;;32.08;14.23;;;;;;;9.65;100.00;96845.25;4934151;29;20031;-71
2022/11/24 10:52:00;;;;;;;37.30;15.88;;;;;;;9.79;100.00;96834.47;4908022;29;20024;-72
2022/11/24 10:54:26;;;;;;;34.95;16.10;;;;;;;9.82;100.00;96839.59;4909134;29;20028;-71
2022/11/24 10:56:53;;;;;;;41.58;16.67;;;;;;;9.98;100.00;96842.88;4901233;29;20031;-72
2022/11/24 10:59:23;;;;;;;38.67;17.92;;;;;;;9.96;100.00;96841.28;4910367;29;20560;-71
2022/11/24 11:01:48;;;;;;;41.80;18.33;;;;;;;9.80;100.00;96831.69;4937175;29;20039;-71
2022/11/24 11:04:19;;;;;;;46.55;19.45;;;;;;;9.80;100.00;96830.84;4919897;29;20435;-70
2022/11/24 11:06:44;;;;;;;37.33;18.50;;;;;;;9.69;100.00;96830.75;4919863;29;20392;-72
2022/11/24 11:09:13;;;;;;;38.58;17.25;;;;;;;9.69;100.00;96830.75;4919902;29;20024;-70
2022/11/24 11:11:39;;;;;;;35.72;14.77;;;;;;;9.74;100.00;96832.13;4919888;29;20027;-70
2022/11/24 11:14:11;;;;;;;32.67;15.90;;;;;;;9.52;100.00;96826.56;4904534;29;20027;-70
2022/11/24 11:16:37;;;;;;;;;;;;;;;9.59;100.00;96837.69;4904091;29;20127;-71
2022/11/24 11:19:05;;;;;;;29.58;12.32;;;;;;;9.58;100.00;96825.28;4904008;29;19918;-71